ウルムチ の空港の天気 - METARとTAF

ウルムチ地窩堡国際空港 ( ZWWW / URC ) - 中華人民共和国 新疆ウイグル自治区ウルムチ市
飛行場実況気象(Metar)
観測時間06/29 09:30 CST (06/29 01:30 UTC)
風向・風速北北西 4m/s
視程10km以上
天気現象
なし
気温23℃
湿度53%
気圧1011hPa
METARZWWW 290130Z 33004MPS 290V010 CAVOK 23/13 Q1011 NOSIG
過去の天気等 Google飛行場航空写真 Wunderground天気予報

過去48時間のMETAR

飛行場予報(TAF)
発表時間: 6/29 08:36 CST (6/29 00:36 UTC)
予報対象時間: 29日8時 CST ~ 30日8時 CST
風向・風速北北西 4m/s
視程10km以上
なし
29日20時 CST ~ 29日21時 CST に徐々に
風向・風速西 4m/s 瞬間風速 9m/s
視程10km以上
天気現象弱い雨
全天の8割程度の雲 雲底高度 910m
全天を覆う雲 雲底高度 1,220m
TAF AMD ZWWW 290036Z 2900/2924 33004MPS CAVOK TX34/2909Z TN15/2923Z
BECMG 2912/2913 27004G09MPS 9999 -RA BKN030 OVC040